Ueda, Japan
Current Conditions -  °F | °C
As of 9:00 PM on Wednesday 28 Jan 2015 (Local Time) from RJNT Reporting Station
Broken Clouds Broken Clouds  
Wind Chill: 22°   Ceiling: 4500
Heat Index: 28°   Visibility: 6mi
Dew Point: 23°   Wind: 6mph
Humidity: 80%   Direction: 210°SSW
Pressure: 30.33"   Gusts: NA
Location:  36.4°N, 138.25°E
Report Text: RJNT 281200Z 21005KT 9999 FEW020 BKN045 M02/M05 Q1027
Loading
Personal Weather Stations






























Interactive Weather Map New forecast layout! Learn more

10-Day Weather Forecast

Advertisements
Track Severe Weather on mobile